PWSweather.com
Personal Weather Stations
Station Observations
THACHERISL
Rockport, MA 01966

Rockport, MA 01966

Lat: 42.636864, Lon: -70.575403

Elevation: 20

Station Type: Davis Vantage Pro 2

https://thacher-island-weather.keneli.org

Latest ConditionsUpdated 9:35:00 PM EST Saturday, Dec 15, 2018
Currently Today's Max Today's Min Today's Average
Temperature 42.8°F6.0°C 51.1°F10.6°C 42.7°F5.9°C 45.0°F7.2°C
Dew Point 35.1°F1.7°C 48.5°F9.2°C 34.8°F1.6°C 41.6°F5.3°C
Winds 21.0 mph NE33.8 kmh NE 26.0 mph -41.8 kmh - - 13.7 mph 22.0 kmh
Wind Gusts 26.0 mph41.8 kmh 32.0 mph51.5 kmh - -
Humidity 74% 96% 73% 88%
Pressure 30.17 in1021.7 mb 30.18 in1022.0 mb 30.06 in1017.9 mb -
Hour Temp Dew Point Humidity Winds Wind Gusts Pressure Precip Precip Rate Daily Precip Total
09:35 PM 42.8°F6.0°C 35.1°F1.7°C 74% 21.0 mph NE33.8 kmh NE 26.0 mph41.8 kmh 30.17 in1021.7 mb 0.00 in0.0 mm 0.00 in0.0 mm 0.00 in0.0 mm
09:30 PM 42.7°F5.9°C 35.0°F1.7°C 74% 21.0 mph NE33.8 kmh NE 27.0 mph43.5 kmh 30.18 in1022.0 mb 0.00 in0.0 mm 0.00 in0.0 mm 0.00 in0.0 mm
09:25 PM 42.8°F6.0°C 35.4°F1.9°C 75% 18.0 mph NE29.0 kmh NE 22.0 mph35.4 kmh 30.18 in1022.0 mb 0.00 in0.0 mm 0.00 in0.0 mm 0.00 in0.0 mm
09:20 PM 42.8°F6.0°C 35.1°F1.7°C 74% 19.0 mph NE30.6 kmh NE 25.0 mph40.2 kmh 30.18 in1022.0 mb 0.00 in0.0 mm 0.00 in0.0 mm 0.00 in0.0 mm
09:15 PM 42.8°F6.0°C 35.1°F1.7°C 74% 18.0 mph NE29.0 kmh NE 23.0 mph37.0 kmh 30.18 in1022.0 mb 0.00 in0.0 mm 0.00 in0.0 mm 0.00 in0.0 mm
09:10 PM 42.8°F6.0°C 35.1°F1.7°C 74% 20.0 mph NE32.2 kmh NE 27.0 mph43.5 kmh 30.18 in1022.0 mb 0.00 in0.0 mm 0.00 in0.0 mm 0.00 in0.0 mm
09:05 PM 42.8°F6.0°C 35.1°F1.7°C 74% 19.0 mph NE30.6 kmh NE 24.0 mph38.6 kmh 30.18 in1022.0 mb 0.00 in0.0 mm 0.00 in0.0 mm 0.00 in0.0 mm
09:00 PM 42.8°F6.0°C 34.8°F1.6°C 73% 21.0 mph NE33.8 kmh NE 26.0 mph41.8 kmh 30.17 in1021.7 mb 0.00 in0.0 mm 0.00 in0.0 mm 0.00 in0.0 mm
08:55 PM 42.9°F6.1°C 35.5°F1.9°C 75% 18.0 mph NE29.0 kmh NE 25.0 mph40.2 kmh 30.18 in1022.0 mb 0.00 in0.0 mm 0.00 in0.0 mm 0.00 in0.0 mm
08:50 PM 42.8°F6.0°C 35.1°F1.7°C 74% 20.0 mph NE32.2 kmh NE 25.0 mph40.2 kmh 30.18 in1022.0 mb 0.00 in0.0 mm 0.00 in0.0 mm 0.00 in0.0 mm
08:45 PM 42.9°F6.1°C 35.2°F1.8°C 74% 19.0 mph NE30.6 kmh NE 25.0 mph40.2 kmh 30.17 in1021.7 mb 0.00 in0.0 mm 0.00 in0.0 mm 0.00 in0.0 mm
08:40 PM 42.9°F6.1°C 35.2°F1.8°C 74% 20.0 mph NE32.2 kmh NE 26.0 mph41.8 kmh 30.17 in1021.7 mb 0.00 in0.0 mm 0.00 in0.0 mm 0.00 in0.0 mm
08:35 PM 43.0°F6.1°C 35.3°F1.8°C 74% 19.0 mph NE30.6 kmh NE 27.0 mph43.5 kmh 30.18 in1022.0 mb 0.00 in0.0 mm 0.00 in0.0 mm 0.00 in0.0 mm
08:30 PM 43.0°F6.1°C 35.3°F1.8°C 74% 20.0 mph NE32.2 kmh NE 27.0 mph43.5 kmh 30.18 in1022.0 mb 0.00 in0.0 mm 0.00 in0.0 mm 0.00 in0.0 mm
08:25 PM 43.1°F6.2°C 35.7°F2.1°C 75% 19.0 mph NE30.6 kmh NE 26.0 mph41.8 kmh 30.18 in1022.0 mb 0.00 in0.0 mm 0.00 in0.0 mm 0.00 in0.0 mm
08:20 PM 43.1°F6.2°C 35.7°F2.1°C 75% 19.0 mph NE30.6 kmh NE 30.0 mph48.3 kmh 30.17 in1021.7 mb 0.00 in0.0 mm 0.00 in0.0 mm 0.00 in0.0 mm
08:15 PM 43.3°F6.3°C 35.9°F2.2°C 75% 20.0 mph NE32.2 kmh NE 27.0 mph43.5 kmh 30.17 in1021.7 mb 0.00 in0.0 mm 0.00 in0.0 mm 0.00 in0.0 mm
08:10 PM 43.4°F6.3°C 36.0°F2.2°C 75% 20.0 mph NE32.2 kmh NE 27.0 mph43.5 kmh 30.16 in1021.3 mb 0.00 in0.0 mm 0.00 in0.0 mm 0.00 in0.0 mm
08:05 PM 43.4°F6.3°C 36.0°F2.2°C 75% 23.0 mph NE37.0 kmh NE 29.0 mph46.7 kmh 30.16 in1021.3 mb 0.00 in0.0 mm 0.00 in0.0 mm 0.00 in0.0 mm
08:00 PM 43.5°F6.4°C 36.1°F2.3°C 75% 23.0 mph NE37.0 kmh NE 29.0 mph46.7 kmh 30.16 in1021.3 mb 0.00 in0.0 mm 0.00 in0.0 mm 0.00 in0.0 mm
07:55 PM 43.5°F6.4°C 35.4°F1.9°C 73% 22.0 mph NE35.4 kmh NE 30.0 mph48.3 kmh 30.15 in1021.0 mb 0.00 in0.0 mm 0.00 in0.0 mm 0.00 in0.0 mm
07:50 PM 43.5°F6.4°C 35.4°F1.9°C 73% 22.0 mph NE35.4 kmh NE 29.0 mph46.7 kmh 30.15 in1021.0 mb 0.00 in0.0 mm 0.00 in0.0 mm 0.00 in0.0 mm
07:45 PM 43.5°F6.4°C 35.4°F1.9°C 73% 24.0 mph NE38.6 kmh NE 30.0 mph48.3 kmh 30.14 in1020.7 mb 0.00 in0.0 mm 0.00 in0.0 mm 0.00 in0.0 mm
07:40 PM 43.5°F6.4°C 35.8°F2.1°C 74% 22.0 mph NE35.4 kmh NE 29.0 mph46.7 kmh 30.14 in1020.7 mb 0.00 in0.0 mm 0.00 in0.0 mm 0.00 in0.0 mm
07:35 PM 43.6°F6.4°C 35.9°F2.2°C 74% 22.0 mph NE35.4 kmh NE 29.0 mph46.7 kmh 30.14 in1020.7 mb 0.00 in0.0 mm 0.00 in0.0 mm 0.00 in0.0 mm
07:30 PM 43.5°F6.4°C 35.4°F1.9°C 73% 22.0 mph NE35.4 kmh NE 31.0 mph49.9 kmh 30.13 in1020.3 mb 0.00 in0.0 mm 0.00 in0.0 mm 0.00 in0.0 mm
07:25 PM 43.5°F6.4°C 35.8°F2.1°C 74% 23.0 mph NE37.0 kmh NE 30.0 mph48.3 kmh 30.12 in1020.0 mb 0.00 in0.0 mm 0.00 in0.0 mm 0.00 in0.0 mm
07:20 PM 43.5°F6.4°C 35.8°F2.1°C 74% 20.0 mph NE32.2 kmh NE 27.0 mph43.5 kmh 30.12 in1020.0 mb 0.00 in0.0 mm 0.00 in0.0 mm 0.00 in0.0 mm
07:15 PM 43.5°F6.4°C 35.8°F2.1°C 74% 22.0 mph NE35.4 kmh NE 29.0 mph46.7 kmh 30.12 in1020.0 mb 0.00 in0.0 mm 0.00 in0.0 mm 0.00 in0.0 mm
07:10 PM 43.4°F6.3°C 36.0°F2.2°C 75% 22.0 mph NE35.4 kmh NE 27.0 mph43.5 kmh 30.12 in1020.0 mb 0.00 in0.0 mm 0.00 in0.0 mm 0.00 in0.0 mm
07:05 PM 43.5°F6.4°C 36.1°F2.3°C 75% 22.0 mph NE35.4 kmh NE 29.0 mph46.7 kmh 30.11 in1019.6 mb 0.00 in0.0 mm 0.00 in0.0 mm 0.00 in0.0 mm
07:00 PM 43.4°F6.3°C 36.0°F2.2°C 75% 26.0 mph ENE41.8 kmh ENE 32.0 mph51.5 kmh 30.11 in1019.6 mb 0.00 in0.0 mm 0.00 in0.0 mm 0.00 in0.0 mm
06:55 PM 43.5°F6.4°C 36.4°F2.4°C 76% 22.0 mph NE35.4 kmh NE 30.0 mph48.3 kmh 30.11 in1019.6 mb 0.00 in0.0 mm 0.00 in0.0 mm 0.00 in0.0 mm
06:50 PM 43.4°F6.3°C 36.0°F2.2°C 75% 25.0 mph NE40.2 kmh NE 31.0 mph49.9 kmh 30.11 in1019.6 mb 0.00 in0.0 mm 0.00 in0.0 mm 0.00 in0.0 mm
06:45 PM 43.4°F6.3°C 36.3°F2.4°C 76% 24.0 mph NE38.6 kmh NE 29.0 mph46.7 kmh 30.12 in1020.0 mb 0.00 in0.0 mm 0.00 in0.0 mm 0.00 in0.0 mm
06:40 PM 43.3°F6.3°C 36.6°F2.6°C 77% 24.0 mph NE38.6 kmh NE 31.0 mph49.9 kmh 30.11 in1019.6 mb 0.00 in0.0 mm 0.00 in0.0 mm 0.00 in0.0 mm
06:35 PM 43.4°F6.3°C 36.7°F2.6°C 77% 20.0 mph NE32.2 kmh NE 29.0 mph46.7 kmh 30.12 in1020.0 mb 0.00 in0.0 mm 0.00 in0.0 mm 0.00 in0.0 mm
06:30 PM 43.4°F6.3°C 36.7°F2.6°C 77% 21.0 mph NE33.8 kmh NE 28.0 mph45.1 kmh 30.13 in1020.3 mb 0.00 in0.0 mm 0.00 in0.0 mm 0.00 in0.0 mm
06:25 PM 43.5°F6.4°C 37.1°F2.8°C 78% 21.0 mph NE33.8 kmh NE 27.0 mph43.5 kmh 30.12 in1020.0 mb 0.00 in0.0 mm 0.00 in0.0 mm 0.00 in0.0 mm
06:20 PM 43.5°F6.4°C 37.4°F3.0°C 79% 21.0 mph NE33.8 kmh NE 27.0 mph43.5 kmh 30.13 in1020.3 mb 0.00 in0.0 mm 0.00 in0.0 mm 0.00 in0.0 mm
06:15 PM 43.5°F6.4°C 37.4°F3.0°C 79% 17.0 mph NE27.4 kmh NE 23.0 mph37.0 kmh 30.13 in1020.3 mb 0.00 in0.0 mm 0.00 in0.0 mm 0.00 in0.0 mm
06:10 PM 43.6°F6.4°C 37.5°F3.1°C 79% 18.0 mph NE29.0 kmh NE 23.0 mph37.0 kmh 30.13 in1020.3 mb 0.00 in0.0 mm 0.00 in0.0 mm 0.00 in0.0 mm
06:05 PM 43.8°F6.6°C 37.7°F3.2°C 79% 19.0 mph ENE30.6 kmh ENE 22.0 mph35.4 kmh 30.14 in1020.7 mb 0.00 in0.0 mm 0.00 in0.0 mm 0.00 in0.0 mm
06:00 PM 43.7°F6.5°C 37.6°F3.1°C 79% 20.0 mph NE32.2 kmh NE 25.0 mph40.2 kmh 30.14 in1020.7 mb 0.00 in0.0 mm 0.00 in0.0 mm 0.00 in0.0 mm
05:55 PM 43.8°F6.6°C 37.7°F3.2°C 79% 20.0 mph NE32.2 kmh NE 26.0 mph41.8 kmh 30.13 in1020.3 mb 0.00 in0.0 mm 0.00 in0.0 mm 0.00 in0.0 mm
05:50 PM 43.8°F6.6°C 37.7°F3.2°C 79% 21.0 mph NE33.8 kmh NE 26.0 mph41.8 kmh 30.14 in1020.7 mb 0.00 in0.0 mm 0.00 in0.0 mm 0.00 in0.0 mm
05:45 PM 43.9°F6.6°C 38.1°F3.4°C 80% 19.0 mph NE30.6 kmh NE 27.0 mph43.5 kmh 30.12 in1020.0 mb 0.00 in0.0 mm 0.00 in0.0 mm 0.00 in0.0 mm
05:40 PM 43.9°F6.6°C 37.8°F3.2°C 79% 22.0 mph NE35.4 kmh NE 27.0 mph43.5 kmh 30.13 in1020.3 mb 0.00 in0.0 mm 0.00 in0.0 mm 0.00 in0.0 mm
05:35 PM 44.0°F6.7°C 38.2°F3.4°C 80% 21.0 mph ENE33.8 kmh ENE 27.0 mph43.5 kmh 30.13 in1020.3 mb 0.00 in0.0 mm 0.00 in0.0 mm 0.00 in0.0 mm
05:30 PM 43.9°F6.6°C 38.1°F3.4°C 80% 22.0 mph NE35.4 kmh NE 29.0 mph46.7 kmh 30.12 in1020.0 mb 0.00 in0.0 mm 0.00 in0.0 mm 0.00 in0.0 mm
05:25 PM 44.0°F6.7°C 38.2°F3.4°C 80% 20.0 mph NE32.2 kmh NE 26.0 mph41.8 kmh 30.12 in1020.0 mb 0.00 in0.0 mm 0.00 in0.0 mm 0.00 in0.0 mm
05:20 PM 43.9°F6.6°C 38.1°F3.4°C 80% 21.0 mph NE33.8 kmh NE 27.0 mph43.5 kmh 30.13 in1020.3 mb 0.00 in0.0 mm 0.00 in0.0 mm 0.00 in0.0 mm
05:15 PM 43.9°F6.6°C 38.5°F3.6°C 81% 22.0 mph NE35.4 kmh NE 29.0 mph46.7 kmh 30.12 in1020.0 mb 0.00 in0.0 mm 0.00 in0.0 mm 0.00 in0.0 mm
05:10 PM 43.9°F6.6°C 38.5°F3.6°C 81% 19.0 mph NE30.6 kmh NE 25.0 mph40.2 kmh 30.12 in1020.0 mb 0.00 in0.0 mm 0.00 in0.0 mm 0.00 in0.0 mm
05:05 PM 43.9°F6.6°C 38.8°F3.8°C 82% 21.0 mph NE33.8 kmh NE 25.0 mph40.2 kmh 30.12 in1020.0 mb 0.00 in0.0 mm 0.00 in0.0 mm 0.00 in0.0 mm
05:00 PM 43.8°F6.6°C 38.7°F3.7°C 82% 19.0 mph NE30.6 kmh NE 25.0 mph40.2 kmh 30.12 in1020.0 mb 0.00 in0.0 mm 0.00 in0.0 mm 0.00 in0.0 mm
04:55 PM 43.8°F6.6°C 39.0°F3.9°C 83% 18.0 mph NE29.0 kmh NE 22.0 mph35.4 kmh 30.12 in1020.0 mb 0.00 in0.0 mm 0.00 in0.0 mm 0.00 in0.0 mm
04:50 PM 43.8°F6.6°C 39.0°F3.9°C 83% 18.0 mph NE29.0 kmh NE 23.0 mph37.0 kmh 30.12 in1020.0 mb 0.00 in0.0 mm 0.00 in0.0 mm 0.00 in0.0 mm
04:45 PM 43.8°F6.6°C 39.0°F3.9°C 83% 17.0 mph NE27.4 kmh NE 22.0 mph35.4 kmh 30.12 in1020.0 mb 0.00 in0.0 mm 0.00 in0.0 mm 0.00 in0.0 mm
04:40 PM 43.8°F6.6°C 39.3°F4.1°C 84% 17.0 mph NE27.4 kmh NE 20.0 mph32.2 kmh 30.12 in1020.0 mb 0.00 in0.0 mm 0.00 in0.0 mm 0.00 in0.0 mm
04:35 PM 43.8°F6.6°C 39.3°F4.1°C 84% 17.0 mph NE27.4 kmh NE 22.0 mph35.4 kmh 30.11 in1019.6 mb 0.00 in0.0 mm 0.00 in0.0 mm 0.00 in0.0 mm
04:30 PM 43.9°F6.6°C 39.4°F4.1°C 84% 16.0 mph NE25.7 kmh NE 22.0 mph35.4 kmh 30.11 in1019.6 mb 0.00 in0.0 mm 0.00 in0.0 mm 0.00 in0.0 mm
04:25 PM 43.8°F6.6°C 39.3°F4.1°C 84% 18.0 mph NE29.0 kmh NE 22.0 mph35.4 kmh 30.11 in1019.6 mb 0.00 in0.0 mm 0.00 in0.0 mm 0.00 in0.0 mm
04:20 PM 44.0°F6.7°C 39.5°F4.2°C 84% 18.0 mph NE29.0 kmh NE 22.0 mph35.4 kmh 30.11 in1019.6 mb 0.00 in0.0 mm 0.00 in0.0 mm 0.00 in0.0 mm
04:15 PM 44.1°F6.7°C 39.6°F4.2°C 84% 17.0 mph ENE27.4 kmh ENE 21.0 mph33.8 kmh 30.11 in1019.6 mb 0.00 in0.0 mm 0.00 in0.0 mm 0.00 in0.0 mm
04:10 PM 44.3°F6.8°C 39.8°F4.3°C 84% 17.0 mph NE27.4 kmh NE 22.0 mph35.4 kmh 30.11 in1019.6 mb 0.00 in0.0 mm 0.00 in0.0 mm 0.00 in0.0 mm
04:05 PM 44.6°F7.0°C 39.8°F4.3°C 83% 16.0 mph NE25.7 kmh NE 20.0 mph32.2 kmh 30.11 in1019.6 mb 0.00 in0.0 mm 0.00 in0.0 mm 0.00 in0.0 mm
04:00 PM 45.1°F7.3°C 39.9°F4.4°C 82% 16.0 mph NE25.7 kmh NE 20.0 mph32.2 kmh 30.11 in1019.6 mb 0.00 in0.0 mm 0.00 in0.0 mm 0.00 in0.0 mm
03:55 PM 45.6°F7.6°C 40.1°F4.5°C 81% 19.0 mph NE30.6 kmh NE 24.0 mph38.6 kmh 30.11 in1019.6 mb 0.00 in0.0 mm 0.00 in0.0 mm 0.00 in0.0 mm
03:50 PM 45.7°F7.6°C 39.6°F4.2°C 79% 17.0 mph NNE27.4 kmh NNE 25.0 mph40.2 kmh 30.10 in1019.3 mb 0.00 in0.0 mm 0.00 in0.0 mm 0.00 in0.0 mm
03:45 PM 45.6°F7.6°C 39.5°F4.2°C 79% 18.0 mph NNE29.0 kmh NNE 23.0 mph37.0 kmh 30.10 in1019.3 mb 0.00 in0.0 mm 0.00 in0.0 mm 0.00 in0.0 mm
03:40 PM 45.6°F7.6°C 39.8°F4.3°C 80% 18.0 mph NNE29.0 kmh NNE 24.0 mph38.6 kmh 30.09 in1019.0 mb 0.00 in0.0 mm 0.00 in0.0 mm 0.00 in0.0 mm
03:35 PM 45.7°F7.6°C 40.2°F4.6°C 81% 17.0 mph NNE27.4 kmh NNE 24.0 mph38.6 kmh 30.09 in1019.0 mb 0.00 in0.0 mm 0.00 in0.0 mm 0.00 in0.0 mm
03:30 PM 45.7°F7.6°C 40.2°F4.6°C 81% 16.0 mph NNE25.7 kmh NNE 21.0 mph33.8 kmh 30.09 in1019.0 mb 0.00 in0.0 mm 0.00 in0.0 mm 0.00 in0.0 mm
03:25 PM 45.7°F7.6°C 40.5°F4.7°C 82% 15.0 mph NNE24.1 kmh NNE 19.0 mph30.6 kmh 30.09 in1019.0 mb 0.00 in0.0 mm 0.00 in0.0 mm 0.00 in0.0 mm
03:20 PM 45.7°F7.6°C 40.5°F4.7°C 82% 15.0 mph NNE24.1 kmh NNE 18.0 mph29.0 kmh 30.09 in1019.0 mb 0.00 in0.0 mm 0.00 in0.0 mm 0.00 in0.0 mm
03:15 PM 45.6°F7.6°C 40.7°F4.8°C 83% 14.0 mph NNE22.5 kmh NNE 18.0 mph29.0 kmh 30.09 in1019.0 mb 0.00 in0.0 mm 0.00 in0.0 mm 0.00 in0.0 mm
03:10 PM 45.6°F7.6°C 40.7°F4.8°C 83% 13.0 mph 20.9 kmh 16.0 mph25.7 kmh 30.09 in1019.0 mb 0.00 in0.0 mm 0.00 in0.0 mm 0.00 in0.0 mm
03:05 PM 45.8°F7.7°C 40.9°F4.9°C 83% 13.0 mph 20.9 kmh 16.0 mph25.7 kmh 30.09 in1019.0 mb 0.00 in0.0 mm 0.00 in0.0 mm 0.00 in0.0 mm
03:00 PM 45.9°F7.7°C 41.0°F5.0°C 83% 12.0 mph 19.3 kmh 15.0 mph24.1 kmh 30.08 in1018.6 mb 0.00 in0.0 mm 0.00 in0.0 mm 0.00 in0.0 mm
02:55 PM 46.1°F7.8°C 40.9°F4.9°C 82% 11.0 mph 17.7 kmh 13.0 mph20.9 kmh 30.09 in1019.0 mb 0.00 in0.0 mm 0.00 in0.0 mm 0.00 in0.0 mm
02:50 PM 46.3°F7.9°C 41.1°F5.1°C 82% 12.0 mph 19.3 kmh 15.0 mph24.1 kmh 30.08 in1018.6 mb 0.00 in0.0 mm 0.00 in0.0 mm 0.00 in0.0 mm
02:45 PM 46.5°F8.1°C 41.3°F5.2°C 82% 12.0 mph 19.3 kmh 14.0 mph22.5 kmh 30.08 in1018.6 mb 0.00 in0.0 mm 0.00 in0.0 mm 0.00 in0.0 mm
02:40 PM 46.5°F8.1°C 41.3°F5.2°C 82% 11.0 mph 17.7 kmh 14.0 mph22.5 kmh 30.08 in1018.6 mb 0.00 in0.0 mm 0.00 in0.0 mm 0.00 in0.0 mm
02:35 PM 46.5°F8.1°C 41.0°F5.0°C 81% 12.0 mph NNW19.3 kmh NNW 14.0 mph22.5 kmh 30.08 in1018.6 mb 0.00 in0.0 mm 0.00 in0.0 mm 0.00 in0.0 mm
02:30 PM 46.8°F8.2°C 41.0°F5.0°C 80% 11.0 mph NNW17.7 kmh NNW 13.0 mph20.9 kmh 30.07 in1018.3 mb 0.00 in0.0 mm 0.00 in0.0 mm 0.00 in0.0 mm
02:25 PM 47.4°F8.6°C 41.2°F5.1°C 79% 11.0 mph NNW17.7 kmh NNW 14.0 mph22.5 kmh 30.07 in1018.3 mb 0.00 in0.0 mm 0.00 in0.0 mm 0.00 in0.0 mm
02:20 PM 47.5°F8.6°C 41.3°F5.2°C 79% 11.0 mph NNW17.7 kmh NNW 14.0 mph22.5 kmh 30.07 in1018.3 mb 0.00 in0.0 mm 0.00 in0.0 mm 0.00 in0.0 mm
02:15 PM 47.5°F8.6°C 41.3°F5.2°C 79% 12.0 mph NNW19.3 kmh NNW 15.0 mph24.1 kmh 30.07 in1018.3 mb 0.00 in0.0 mm 0.00 in0.0 mm 0.00 in0.0 mm
02:10 PM 47.9°F8.8°C 41.4°F5.2°C 78% 12.0 mph NNW19.3 kmh NNW 15.0 mph24.1 kmh 30.07 in1018.3 mb 0.00 in0.0 mm 0.00 in0.0 mm 0.00 in0.0 mm
02:05 PM 48.0°F8.9°C 41.8°F5.4°C 79% 12.0 mph NNW19.3 kmh NNW 14.0 mph22.5 kmh 30.07 in1018.3 mb 0.00 in0.0 mm 0.00 in0.0 mm 0.00 in0.0 mm
02:00 PM 47.9°F8.8°C 41.7°F5.4°C 79% 9.0 mph NNW14.5 kmh NNW 14.0 mph22.5 kmh 30.07 in1018.3 mb 0.00 in0.0 mm 0.00 in0.0 mm 0.00 in0.0 mm
01:55 PM 48.2°F9.0°C 42.0°F5.6°C 79% 6.0 mph NNW9.7 kmh NNW 9.0 mph14.5 kmh 30.07 in1018.3 mb 0.00 in0.0 mm 0.00 in0.0 mm 0.00 in0.0 mm
01:50 PM 48.2°F9.0°C 42.0°F5.6°C 79% 6.0 mph NNW9.7 kmh NNW 10.0 mph16.1 kmh 30.07 in1018.3 mb 0.00 in0.0 mm 0.00 in0.0 mm 0.00 in0.0 mm
01:45 PM 48.0°F8.9°C 41.8°F5.4°C 79% 9.0 mph NNW14.5 kmh NNW 10.0 mph16.1 kmh 30.06 in1017.9 mb 0.00 in0.0 mm 0.00 in0.0 mm 0.00 in0.0 mm
01:40 PM 48.1°F8.9°C 41.9°F5.5°C 79% 8.0 mph NNW12.9 kmh NNW 10.0 mph16.1 kmh 30.07 in1018.3 mb 0.00 in0.0 mm 0.00 in0.0 mm 0.00 in0.0 mm
01:35 PM 48.3°F9.1°C 42.1°F5.6°C 79% 7.0 mph NNW11.3 kmh NNW 10.0 mph16.1 kmh 30.07 in1018.3 mb 0.00 in0.0 mm 0.00 in0.0 mm 0.00 in0.0 mm
01:30 PM 48.5°F9.2°C 42.0°F5.6°C 78% 6.0 mph NNW9.7 kmh NNW 9.0 mph14.5 kmh 30.07 in1018.3 mb 0.00 in0.0 mm 0.00 in0.0 mm 0.00 in0.0 mm
01:25 PM 49.2°F9.6°C 42.3°F5.7°C 77% 5.0 mph 8.0 kmh 8.0 mph12.9 kmh 30.07 in1018.3 mb 0.00 in0.0 mm 0.00 in0.0 mm 0.00 in0.0 mm
01:20 PM 49.4°F9.7°C 42.5°F5.8°C 77% 5.0 mph 8.0 kmh 8.0 mph12.9 kmh 30.06 in1017.9 mb 0.00 in0.0 mm 0.00 in0.0 mm 0.00 in0.0 mm
01:15 PM 49.6°F9.8°C 42.7°F5.9°C 77% 7.0 mph 11.3 kmh 9.0 mph14.5 kmh 30.07 in1018.3 mb 0.00 in0.0 mm 0.00 in0.0 mm 0.00 in0.0 mm
01:10 PM 49.8°F9.9°C 42.9°F6.1°C 77% 8.0 mph 12.9 kmh 10.0 mph16.1 kmh 30.07 in1018.3 mb 0.00 in0.0 mm 0.00 in0.0 mm 0.00 in0.0 mm
01:05 PM 49.7°F9.8°C 42.8°F6.0°C 77% 8.0 mph NNW12.9 kmh NNW 10.0 mph16.1 kmh 30.06 in1017.9 mb 0.00 in0.0 mm 0.00 in0.0 mm 0.00 in0.0 mm
01:00 PM 49.7°F9.8°C 42.8°F6.0°C 77% 8.0 mph NNW12.9 kmh NNW 11.0 mph17.7 kmh 30.06 in1017.9 mb 0.00 in0.0 mm 0.00 in0.0 mm 0.00 in0.0 mm
12:55 PM 49.9°F9.9°C 43.0°F6.1°C 77% 8.0 mph NNW12.9 kmh NNW 11.0 mph17.7 kmh 30.06 in1017.9 mb 0.00 in0.0 mm 0.00 in0.0 mm 0.00 in0.0 mm
12:50 PM 50.0°F10.0°C 43.1°F6.2°C 77% 11.0 mph NNW17.7 kmh NNW 14.0 mph22.5 kmh 30.06 in1017.9 mb 0.00 in0.0 mm 0.00 in0.0 mm 0.00 in0.0 mm
12:45 PM 50.2°F10.1°C 43.3°F6.3°C 77% 13.0 mph NNW20.9 kmh NNW 18.0 mph29.0 kmh 30.06 in1017.9 mb 0.00 in0.0 mm 0.00 in0.0 mm 0.00 in0.0 mm
12:40 PM 49.9°F9.9°C 43.7°F6.5°C 79% 15.0 mph NNW24.1 kmh NNW 18.0 mph29.0 kmh 30.06 in1017.9 mb 0.00 in0.0 mm 0.00 in0.0 mm 0.00 in0.0 mm
12:35 PM 49.2°F9.6°C 43.6°F6.4°C 81% 14.0 mph NNW22.5 kmh NNW 16.0 mph25.7 kmh 30.06 in1017.9 mb 0.00 in0.0 mm 0.00 in0.0 mm 0.00 in0.0 mm
12:30 PM 49.5°F9.7°C 44.2°F6.8°C 82% 13.0 mph NNW20.9 kmh NNW 17.0 mph27.4 kmh 30.06 in1017.9 mb 0.00 in0.0 mm 0.00 in0.0 mm 0.00 in0.0 mm
12:25 PM 50.1°F10.1°C 44.8°F7.1°C 82% 11.0 mph NNW17.7 kmh NNW 14.0 mph22.5 kmh 30.06 in1017.9 mb 0.00 in0.0 mm 0.00 in0.0 mm 0.00 in0.0 mm
12:20 PM 50.9°F10.5°C 45.9°F7.7°C 83% 9.0 mph NNW14.5 kmh NNW 12.0 mph19.3 kmh 30.07 in1018.3 mb 0.00 in0.0 mm 0.00 in0.0 mm 0.00 in0.0 mm
12:15 PM 51.1°F10.6°C 46.4°F8.0°C 84% 10.0 mph NNW16.1 kmh NNW 14.0 mph22.5 kmh 30.07 in1018.3 mb 0.00 in0.0 mm 0.00 in0.0 mm 0.00 in0.0 mm
12:10 PM 51.1°F10.6°C 46.7°F8.2°C 85% 10.0 mph NNW16.1 kmh NNW 13.0 mph20.9 kmh 30.07 in1018.3 mb 0.00 in0.0 mm 0.00 in0.0 mm 0.00 in0.0 mm
12:05 PM 50.9°F10.5°C 46.9°F8.3°C 86% 11.0 mph NNW17.7 kmh NNW 13.0 mph20.9 kmh 30.07 in1018.3 mb 0.00 in0.0 mm 0.00 in0.0 mm 0.00 in0.0 mm
12:00 PM 51.0°F10.6°C 47.6°F8.7°C 88% 10.0 mph NNW16.1 kmh NNW 13.0 mph20.9 kmh 30.07 in1018.3 mb 0.00 in0.0 mm 0.00 in0.0 mm 0.00 in0.0 mm
11:55 AM 51.0°F10.6°C 48.5°F9.2°C 91% 6.0 mph NW9.7 kmh NW 12.0 mph19.3 kmh 30.07 in1018.3 mb 0.00 in0.0 mm 0.00 in0.0 mm 0.00 in0.0 mm
11:50 AM 50.7°F10.4°C 48.5°F9.2°C 92% 5.0 mph NW8.0 kmh NW 8.0 mph12.9 kmh 30.07 in1018.3 mb 0.00 in0.0 mm 0.00 in0.0 mm 0.00 in0.0 mm
11:45 AM 49.9°F9.9°C 48.2°F9.0°C 94% 4.0 mph WNW6.4 kmh WNW 7.0 mph11.3 kmh 30.07 in1018.3 mb 0.00 in0.0 mm 0.00 in0.0 mm 0.00 in0.0 mm
11:40 AM 49.1°F9.5°C 47.4°F8.6°C 94% 4.0 mph W6.4 kmh W 7.0 mph11.3 kmh 30.07 in1018.3 mb 0.00 in0.0 mm 0.00 in0.0 mm 0.00 in0.0 mm
11:35 AM 48.6°F9.2°C 47.0°F8.3°C 94% 3.0 mph W4.8 kmh W 7.0 mph11.3 kmh 30.07 in1018.3 mb 0.00 in0.0 mm 0.00 in0.0 mm 0.00 in0.0 mm
11:30 AM 48.2°F9.0°C 46.8°F8.2°C 95% 4.0 mph W6.4 kmh W 7.0 mph11.3 kmh 30.08 in1018.6 mb 0.00 in0.0 mm 0.00 in0.0 mm 0.00 in0.0 mm
11:25 AM 47.7°F8.7°C 46.3°F7.9°C 95% 6.0 mph WSW9.7 kmh WSW 9.0 mph14.5 kmh 30.08 in1018.6 mb 0.00 in0.0 mm 0.00 in0.0 mm 0.00 in0.0 mm
11:20 AM 47.5°F8.6°C 46.1°F7.8°C 95% 7.0 mph WSW11.3 kmh WSW 11.0 mph17.7 kmh 30.08 in1018.6 mb 0.00 in0.0 mm 0.00 in0.0 mm 0.00 in0.0 mm
11:15 AM 47.3°F8.5°C 45.9°F7.7°C 95% 7.0 mph WSW11.3 kmh WSW 10.0 mph16.1 kmh 30.08 in1018.6 mb 0.00 in0.0 mm 0.00 in0.0 mm 0.00 in0.0 mm
11:10 AM 47.1°F8.4°C 45.7°F7.6°C 95% 7.0 mph WSW11.3 kmh WSW 12.0 mph19.3 kmh 30.09 in1019.0 mb 0.00 in0.0 mm 0.00 in0.0 mm 0.00 in0.0 mm
11:05 AM 47.2°F8.4°C 45.8°F7.7°C 95% 7.0 mph WSW11.3 kmh WSW 10.0 mph16.1 kmh 30.09 in1019.0 mb 0.00 in0.0 mm 0.00 in0.0 mm 0.00 in0.0 mm
11:00 AM 47.1°F8.4°C 45.7°F7.6°C 95% 8.0 mph WSW12.9 kmh WSW 11.0 mph17.7 kmh 30.09 in1019.0 mb 0.00 in0.0 mm 0.00 in0.0 mm 0.00 in0.0 mm
10:55 AM 47.1°F8.4°C 45.7°F7.6°C 95% 7.0 mph WSW11.3 kmh WSW 11.0 mph17.7 kmh 30.09 in1019.0 mb 0.00 in0.0 mm 0.00 in0.0 mm 0.00 in0.0 mm
10:50 AM 47.2°F8.4°C 45.8°F7.7°C 95% 6.0 mph SW9.7 kmh SW 9.0 mph14.5 kmh 30.10 in1019.3 mb 0.00 in0.0 mm 0.00 in0.0 mm 0.00 in0.0 mm
10:45 AM 47.2°F8.4°C 46.1°F7.8°C 96% 5.0 mph WSW8.0 kmh WSW 9.0 mph14.5 kmh 30.10 in1019.3 mb 0.00 in0.0 mm 0.00 in0.0 mm 0.00 in0.0 mm
10:40 AM 47.0°F8.3°C 45.6°F7.6°C 95% 7.0 mph SW11.3 kmh SW 11.0 mph17.7 kmh 30.10 in1019.3 mb 0.00 in0.0 mm 0.00 in0.0 mm 0.00 in0.0 mm
10:35 AM 47.1°F8.4°C 45.7°F7.6°C 95% 7.0 mph SW11.3 kmh SW 11.0 mph17.7 kmh 30.10 in1019.3 mb 0.00 in0.0 mm 0.00 in0.0 mm 0.00 in0.0 mm
10:30 AM 47.1°F8.4°C 46.0°F7.8°C 96% 7.0 mph SW11.3 kmh SW 11.0 mph17.7 kmh 30.10 in1019.3 mb 0.00 in0.0 mm 0.00 in0.0 mm 0.00 in0.0 mm
10:25 AM 47.0°F8.3°C 45.9°F7.7°C 96% 7.0 mph WSW11.3 kmh WSW 11.0 mph17.7 kmh 30.11 in1019.6 mb 0.00 in0.0 mm 0.00 in0.0 mm 0.00 in0.0 mm
10:20 AM 46.7°F8.2°C 45.6°F7.6°C 96% 6.0 mph WSW9.7 kmh WSW 9.0 mph14.5 kmh 30.11 in1019.6 mb 0.00 in0.0 mm 0.00 in0.0 mm 0.00 in0.0 mm
10:15 AM 46.6°F8.1°C 45.5°F7.5°C 96% 7.0 mph WSW11.3 kmh WSW 10.0 mph16.1 kmh 30.11 in1019.6 mb 0.00 in0.0 mm 0.00 in0.0 mm 0.00 in0.0 mm
10:10 AM 46.4°F8.0°C 45.3°F7.4°C 96% 6.0 mph WSW9.7 kmh WSW 10.0 mph16.1 kmh 30.11 in1019.6 mb 0.00 in0.0 mm 0.00 in0.0 mm 0.00 in0.0 mm
10:05 AM 46.1°F7.8°C 45.0°F7.2°C 96% 7.0 mph WSW11.3 kmh WSW 11.0 mph17.7 kmh 30.12 in1020.0 mb 0.00 in0.0 mm 0.00 in0.0 mm 0.00 in0.0 mm
10:00 AM 45.8°F7.7°C 44.7°F7.1°C 96% 8.0 mph WSW12.9 kmh WSW 12.0 mph19.3 kmh 30.12 in1020.0 mb 0.00 in0.0 mm 0.00 in0.0 mm 0.00 in0.0 mm
09:55 AM 45.7°F7.6°C 44.6°F7.0°C 96% 9.0 mph WSW14.5 kmh WSW 12.0 mph19.3 kmh 30.12 in1020.0 mb 0.00 in0.0 mm 0.00 in0.0 mm 0.00 in0.0 mm
09:50 AM 45.7°F7.6°C 44.6°F7.0°C 96% 9.0 mph WSW14.5 kmh WSW 12.0 mph19.3 kmh 30.12 in1020.0 mb 0.00 in0.0 mm 0.00 in0.0 mm 0.00 in0.0 mm
09:45 AM 45.6°F7.6°C 44.5°F6.9°C 96% 8.0 mph WSW12.9 kmh WSW 10.0 mph16.1 kmh 30.12 in1020.0 mb 0.00 in0.0 mm 0.00 in0.0 mm 0.00 in0.0 mm
09:40 AM 45.6°F7.6°C 44.5°F6.9°C 96% 7.0 mph WSW11.3 kmh WSW 10.0 mph16.1 kmh 30.12 in1020.0 mb 0.00 in0.0 mm 0.00 in0.0 mm 0.00 in0.0 mm
09:35 AM 45.5°F7.5°C 44.4°F6.9°C 96% 7.0 mph WSW11.3 kmh WSW 10.0 mph16.1 kmh 30.12 in1020.0 mb 0.00 in0.0 mm 0.00 in0.0 mm 0.00 in0.0 mm
09:30 AM 45.4°F7.4°C 44.3°F6.8°C 96% 6.0 mph WSW9.7 kmh WSW 10.0 mph16.1 kmh 30.11 in1019.6 mb 0.00 in0.0 mm 0.00 in0.0 mm 0.00 in0.0 mm
09:25 AM 45.4°F7.4°C 44.3°F6.8°C 96% 8.0 mph WSW12.9 kmh WSW 10.0 mph16.1 kmh 30.11 in1019.6 mb 0.00 in0.0 mm 0.00 in0.0 mm 0.00 in0.0 mm
09:20 AM 45.2°F7.3°C 44.1°F6.7°C 96% 7.0 mph WSW11.3 kmh WSW 10.0 mph16.1 kmh 30.11 in1019.6 mb 0.00 in0.0 mm 0.00 in0.0 mm 0.00 in0.0 mm
09:15 AM 45.1°F7.3°C 44.0°F6.7°C 96% 8.0 mph WSW12.9 kmh WSW 11.0 mph17.7 kmh 30.11 in1019.6 mb 0.00 in0.0 mm 0.00 in0.0 mm 0.00 in0.0 mm
09:10 AM 45.0°F7.2°C 43.9°F6.6°C 96% 9.0 mph WSW14.5 kmh WSW 12.0 mph19.3 kmh 30.11 in1019.6 mb 0.00 in0.0 mm 0.00 in0.0 mm 0.00 in0.0 mm
09:05 AM 45.0°F7.2°C 43.9°F6.6°C 96% 9.0 mph WSW14.5 kmh WSW 11.0 mph17.7 kmh 30.11 in1019.6 mb 0.00 in0.0 mm 0.00 in0.0 mm 0.00 in0.0 mm
09:00 AM 45.0°F7.2°C 43.9°F6.6°C 96% 9.0 mph WSW14.5 kmh WSW 12.0 mph19.3 kmh 30.11 in1019.6 mb 0.00 in0.0 mm 0.00 in0.0 mm 0.00 in0.0 mm
08:55 AM 45.1°F7.3°C 44.0°F6.7°C 96% 9.0 mph WSW14.5 kmh WSW 12.0 mph19.3 kmh 30.11 in1019.6 mb 0.00 in0.0 mm 0.00 in0.0 mm 0.00 in0.0 mm
08:50 AM 45.1°F7.3°C 44.0°F6.7°C 96% 10.0 mph WSW16.1 kmh WSW 13.0 mph20.9 kmh 30.11 in1019.6 mb 0.00 in0.0 mm 0.00 in0.0 mm 0.00 in0.0 mm
08:45 AM 45.1°F7.3°C 44.0°F6.7°C 96% 11.0 mph WSW17.7 kmh WSW 14.0 mph22.5 kmh 30.11 in1019.6 mb 0.00 in0.0 mm 0.00 in0.0 mm 0.00 in0.0 mm
08:40 AM 45.1°F7.3°C 44.0°F6.7°C 96% 11.0 mph WSW17.7 kmh WSW 15.0 mph24.1 kmh 30.11 in1019.6 mb 0.00 in0.0 mm 0.00 in0.0 mm 0.00 in0.0 mm
08:35 AM 45.0°F7.2°C 43.9°F6.6°C 96% 11.0 mph WSW17.7 kmh WSW 14.0 mph22.5 kmh 30.11 in1019.6 mb 0.00 in0.0 mm 0.00 in0.0 mm 0.00 in0.0 mm
08:30 AM 45.0°F7.2°C 43.9°F6.6°C 96% 11.0 mph W17.7 kmh W 15.0 mph24.1 kmh 30.11 in1019.6 mb 0.00 in0.0 mm 0.00 in0.0 mm 0.00 in0.0 mm
08:25 AM 44.9°F7.2°C 43.8°F6.6°C 96% 11.0 mph WSW17.7 kmh WSW 14.0 mph22.5 kmh 30.11 in1019.6 mb 0.00 in0.0 mm 0.00 in0.0 mm 0.00 in0.0 mm
08:20 AM 44.8°F7.1°C 43.7°F6.5°C 96% 11.0 mph WSW17.7 kmh WSW 15.0 mph24.1 kmh 30.11 in1019.6 mb 0.00 in0.0 mm 0.00 in0.0 mm 0.00 in0.0 mm
08:15 AM 44.8°F7.1°C 43.7°F6.5°C 96% 10.0 mph W16.1 kmh W 14.0 mph22.5 kmh 30.11 in1019.6 mb 0.00 in0.0 mm 0.00 in0.0 mm 0.00 in0.0 mm
08:10 AM 44.7°F7.1°C 43.6°F6.4°C 96% 11.0 mph W17.7 kmh W 14.0 mph22.5 kmh 30.11 in1019.6 mb 0.00 in0.0 mm 0.00 in0.0 mm 0.00 in0.0 mm
08:05 AM 44.8°F7.1°C 43.7°F6.5°C 96% 10.0 mph WSW16.1 kmh WSW 14.0 mph22.5 kmh 30.11 in1019.6 mb 0.00 in0.0 mm 0.00 in0.0 mm 0.00 in0.0 mm
08:00 AM 44.7°F7.1°C 43.6°F6.4°C 96% 10.0 mph WSW16.1 kmh WSW 14.0 mph22.5 kmh 30.11 in1019.6 mb 0.00 in0.0 mm 0.00 in0.0 mm 0.00 in0.0 mm
07:55 AM 44.7°F7.1°C 43.6°F6.4°C 96% 10.0 mph WSW16.1 kmh WSW 14.0 mph22.5 kmh 30.11 in1019.6 mb 0.00 in0.0 mm 0.00 in0.0 mm 0.00 in0.0 mm
07:50 AM 44.5°F6.9°C 43.4°F6.3°C 96% 11.0 mph WSW17.7 kmh WSW 14.0 mph22.5 kmh 30.11 in1019.6 mb 0.00 in0.0 mm 0.00 in0.0 mm 0.00 in0.0 mm
07:45 AM 44.5°F6.9°C 43.4°F6.3°C 96% 8.0 mph W12.9 kmh W 12.0 mph19.3 kmh 30.11 in1019.6 mb 0.00 in0.0 mm 0.00 in0.0 mm 0.00 in0.0 mm
07:40 AM 44.7°F7.1°C 43.6°F6.4°C 96% 9.0 mph WSW14.5 kmh WSW 13.0 mph20.9 kmh 30.10 in1019.3 mb 0.00 in0.0 mm 0.00 in0.0 mm 0.00 in0.0 mm
07:35 AM 44.8°F7.1°C 43.7°F6.5°C 96% 12.0 mph WSW19.3 kmh WSW 16.0 mph25.7 kmh 30.10 in1019.3 mb 0.00 in0.0 mm 0.00 in0.0 mm 0.00 in0.0 mm
07:30 AM 44.6°F7.0°C 43.5°F6.4°C 96% 12.0 mph WSW19.3 kmh WSW 17.0 mph27.4 kmh 30.09 in1019.0 mb 0.00 in0.0 mm 0.00 in0.0 mm 0.00 in0.0 mm
07:25 AM 44.6°F7.0°C 43.5°F6.4°C 96% 11.0 mph WSW17.7 kmh WSW 15.0 mph24.1 kmh 30.10 in1019.3 mb 0.00 in0.0 mm 0.00 in0.0 mm 0.00 in0.0 mm
07:20 AM 44.6°F7.0°C 43.5°F6.4°C 96% 10.0 mph W16.1 kmh W 14.0 mph22.5 kmh 30.10 in1019.3 mb 0.00 in0.0 mm 0.00 in0.0 mm 0.00 in0.0 mm
07:15 AM 44.5°F6.9°C 43.4°F6.3°C 96% 12.0 mph WSW19.3 kmh WSW 16.0 mph25.7 kmh 30.09 in1019.0 mb 0.00 in0.0 mm 0.00 in0.0 mm 0.00 in0.0 mm
07:10 AM 44.4°F6.9°C 43.3°F6.3°C 96% 14.0 mph WSW22.5 kmh WSW 18.0 mph29.0 kmh 30.08 in1018.6 mb 0.00 in0.0 mm 0.00 in0.0 mm 0.00 in0.0 mm
07:05 AM 44.5°F6.9°C 43.4°F6.3°C 96% 14.0 mph WSW22.5 kmh WSW 18.0 mph29.0 kmh 30.08 in1018.6 mb 0.00 in0.0 mm 0.00 in0.0 mm 0.00 in0.0 mm
07:00 AM 44.5°F6.9°C 43.4°F6.3°C 96% 14.0 mph WSW22.5 kmh WSW 18.0 mph29.0 kmh 30.09 in1019.0 mb 0.00 in0.0 mm 0.00 in0.0 mm 0.00 in0.0 mm
06:55 AM 44.5°F6.9°C 43.4°F6.3°C 96% 14.0 mph WSW22.5 kmh WSW 18.0 mph29.0 kmh 30.09 in1019.0 mb 0.00 in0.0 mm 0.00 in0.0 mm 0.00 in0.0 mm
06:50 AM 44.5°F6.9°C 43.4°F6.3°C 96% 13.0 mph WSW20.9 kmh WSW 16.0 mph25.7 kmh 30.08 in1018.6 mb 0.00 in0.0 mm 0.00 in0.0 mm 0.00 in0.0 mm
06:45 AM 44.4°F6.9°C 43.3°F6.3°C 96% 13.0 mph WSW20.9 kmh WSW 17.0 mph27.4 kmh 30.08 in1018.6 mb 0.00 in0.0 mm 0.00 in0.0 mm 0.00 in0.0 mm
06:40 AM 44.3°F6.8°C 43.2°F6.2°C 96% 12.0 mph WSW19.3 kmh WSW 16.0 mph25.7 kmh 30.08 in1018.6 mb 0.00 in0.0 mm 0.00 in0.0 mm 0.00 in0.0 mm
06:35 AM 44.3°F6.8°C 43.2°F6.2°C 96% 12.0 mph WSW19.3 kmh WSW 16.0 mph25.7 kmh 30.08 in1018.6 mb 0.00 in0.0 mm 0.00 in0.0 mm 0.00 in0.0 mm
06:30 AM 44.3°F6.8°C 43.2°F6.2°C 96% 13.0 mph WSW20.9 kmh WSW 18.0 mph29.0 kmh 30.08 in1018.6 mb 0.00 in0.0 mm 0.00 in0.0 mm 0.00 in0.0 mm
06:25 AM 44.3°F6.8°C 43.2°F6.2°C 96% 13.0 mph WSW20.9 kmh WSW 17.0 mph27.4 kmh 30.08 in1018.6 mb 0.00 in0.0 mm 0.00 in0.0 mm 0.00 in0.0 mm
06:20 AM 44.2°F6.8°C 43.1°F6.2°C 96% 11.0 mph WSW17.7 kmh WSW 15.0 mph24.1 kmh 30.08 in1018.6 mb 0.00 in0.0 mm 0.00 in0.0 mm 0.00 in0.0 mm
06:15 AM 44.2°F6.8°C 43.1°F6.2°C 96% 11.0 mph WSW17.7 kmh WSW 14.0 mph22.5 kmh 30.07 in1018.3 mb 0.00 in0.0 mm 0.00 in0.0 mm 0.00 in0.0 mm
06:10 AM 44.2°F6.8°C 43.1°F6.2°C 96% 10.0 mph WSW16.1 kmh WSW 15.0 mph24.1 kmh 30.07 in1018.3 mb 0.00 in0.0 mm 0.00 in0.0 mm 0.00 in0.0 mm
06:05 AM 44.2°F6.8°C 43.1°F6.2°C 96% 12.0 mph WSW19.3 kmh WSW 15.0 mph24.1 kmh 30.07 in1018.3 mb 0.00 in0.0 mm 0.00 in0.0 mm 0.00 in0.0 mm
06:00 AM 44.2°F6.8°C 43.1°F6.2°C 96% 11.0 mph WSW17.7 kmh WSW 15.0 mph24.1 kmh 30.07 in1018.3 mb 0.00 in0.0 mm 0.00 in0.0 mm 0.00 in0.0 mm
05:55 AM 44.1°F6.7°C 43.0°F6.1°C 96% 11.0 mph WSW17.7 kmh WSW 15.0 mph24.1 kmh 30.07 in1018.3 mb 0.00 in0.0 mm 0.00 in0.0 mm 0.00 in0.0 mm
05:50 AM 44.2°F6.8°C 43.1°F6.2°C 96% 11.0 mph WSW17.7 kmh WSW 15.0 mph24.1 kmh 30.06 in1017.9 mb 0.00 in0.0 mm 0.00 in0.0 mm 0.00 in0.0 mm
05:45 AM 44.1°F6.7°C 43.0°F6.1°C 96% 11.0 mph WSW17.7 kmh WSW 15.0 mph24.1 kmh 30.06 in1017.9 mb 0.00 in0.0 mm 0.00 in0.0 mm 0.00 in0.0 mm
05:40 AM 44.1°F6.7°C 43.0°F6.1°C 96% 11.0 mph WSW17.7 kmh WSW 15.0 mph24.1 kmh 30.06 in1017.9 mb 0.00 in0.0 mm 0.00 in0.0 mm 0.00 in0.0 mm
05:35 AM 44.2°F6.8°C 43.1°F6.2°C 96% 11.0 mph WSW17.7 kmh WSW 15.0 mph24.1 kmh 30.06 in1017.9 mb 0.00 in0.0 mm 0.00 in0.0 mm 0.00 in0.0 mm
05:30 AM 44.1°F6.7°C 43.0°F6.1°C 96% 12.0 mph WSW19.3 kmh WSW 15.0 mph24.1 kmh 30.07 in1018.3 mb 0.00 in0.0 mm 0.00 in0.0 mm 0.00 in0.0 mm
05:25 AM 44.1°F6.7°C 43.0°F6.1°C 96% 12.0 mph WSW19.3 kmh WSW 16.0 mph25.7 kmh 30.07 in1018.3 mb 0.00 in0.0 mm 0.00 in0.0 mm 0.00 in0.0 mm
05:20 AM 44.1°F6.7°C 43.0°F6.1°C 96% 12.0 mph WSW19.3 kmh WSW 15.0 mph24.1 kmh 30.07 in1018.3 mb 0.00 in0.0 mm 0.00 in0.0 mm 0.00 in0.0 mm
05:15 AM 44.2°F6.8°C 43.1°F6.2°C 96% 13.0 mph WSW20.9 kmh WSW 17.0 mph27.4 kmh 30.07 in1018.3 mb 0.00 in0.0 mm 0.00 in0.0 mm 0.00 in0.0 mm
05:10 AM 44.2°F6.8°C 43.1°F6.2°C 96% 12.0 mph WSW19.3 kmh WSW 16.0 mph25.7 kmh 30.07 in1018.3 mb 0.00 in0.0 mm 0.00 in0.0 mm 0.00 in0.0 mm
05:05 AM 44.3°F6.8°C 43.2°F6.2°C 96% 12.0 mph WSW19.3 kmh WSW 16.0 mph25.7 kmh 30.07 in1018.3 mb 0.00 in0.0 mm 0.00 in0.0 mm 0.00 in0.0 mm
05:00 AM 44.2°F6.8°C 43.1°F6.2°C 96% 12.0 mph WSW19.3 kmh WSW 16.0 mph25.7 kmh 30.07 in1018.3 mb 0.00 in0.0 mm 0.00 in0.0 mm 0.00 in0.0 mm
04:55 AM 44.2°F6.8°C 43.1°F6.2°C 96% 12.0 mph WSW19.3 kmh WSW 15.0 mph24.1 kmh 30.07 in1018.3 mb 0.00 in0.0 mm 0.00 in0.0 mm 0.00 in0.0 mm
04:50 AM 44.3°F6.8°C 43.2°F6.2°C 96% 12.0 mph WSW19.3 kmh WSW 17.0 mph27.4 kmh 30.07 in1018.3 mb 0.00 in0.0 mm 0.00 in0.0 mm 0.00 in0.0 mm
04:45 AM 44.2°F6.8°C 43.1°F6.2°C 96% 12.0 mph WSW19.3 kmh WSW 16.0 mph25.7 kmh 30.07 in1018.3 mb 0.00 in0.0 mm 0.00 in0.0 mm 0.00 in0.0 mm
04:40 AM 44.2°F6.8°C 43.1°F6.2°C 96% 12.0 mph WSW19.3 kmh WSW 16.0 mph25.7 kmh 30.07 in1018.3 mb 0.00 in0.0 mm 0.00 in0.0 mm 0.00 in0.0 mm
04:35 AM 44.2°F6.8°C 43.1°F6.2°C 96% 12.0 mph WSW19.3 kmh WSW 16.0 mph25.7 kmh 30.07 in1018.3 mb 0.00 in0.0 mm 0.00 in0.0 mm 0.00 in0.0 mm
04:30 AM 44.2°F6.8°C 43.1°F6.2°C 96% 12.0 mph WSW19.3 kmh WSW 16.0 mph25.7 kmh 30.07 in1018.3 mb 0.00 in0.0 mm 0.00 in0.0 mm 0.00 in0.0 mm
04:25 AM 44.1°F6.7°C 43.0°F6.1°C 96% 13.0 mph WSW20.9 kmh WSW 17.0 mph27.4 kmh 30.07 in1018.3 mb 0.00 in0.0 mm 0.00 in0.0 mm 0.00 in0.0 mm
04:20 AM 44.0°F6.7°C 42.9°F6.1°C 96% 13.0 mph WSW20.9 kmh WSW 16.0 mph25.7 kmh 30.07 in1018.3 mb 0.00 in0.0 mm 0.00 in0.0 mm 0.00 in0.0 mm
04:15 AM 43.9°F6.6°C 42.8°F6.0°C 96% 12.0 mph WSW19.3 kmh WSW 16.0 mph25.7 kmh 30.07 in1018.3 mb 0.00 in0.0 mm 0.00 in0.0 mm 0.00 in0.0 mm
04:10 AM 43.9°F6.6°C 42.8°F6.0°C 96% 13.0 mph WSW20.9 kmh WSW 17.0 mph27.4 kmh 30.07 in1018.3 mb 0.00 in0.0 mm 0.00 in0.0 mm 0.00 in0.0 mm
04:05 AM 43.8°F6.6°C 42.7°F5.9°C 96% 13.0 mph WSW20.9 kmh WSW 17.0 mph27.4 kmh 30.07 in1018.3 mb 0.00 in0.0 mm 0.00 in0.0 mm 0.00 in0.0 mm
04:00 AM 43.8°F6.6°C 42.7°F5.9°C 96% 14.0 mph WSW22.5 kmh WSW 18.0 mph29.0 kmh 30.07 in1018.3 mb 0.00 in0.0 mm 0.00 in0.0 mm 0.00 in0.0 mm
03:55 AM 43.8°F6.6°C 42.7°F5.9°C 96% 13.0 mph WSW20.9 kmh WSW 18.0 mph29.0 kmh 30.07 in1018.3 mb 0.00 in0.0 mm 0.00 in0.0 mm 0.00 in0.0 mm
03:50 AM 43.8°F6.6°C 42.7°F5.9°C 96% 13.0 mph WSW20.9 kmh WSW 17.0 mph27.4 kmh 30.07 in1018.3 mb 0.00 in0.0 mm 0.00 in0.0 mm 0.00 in0.0 mm
03:45 AM 43.9°F6.6°C 42.8°F6.0°C 96% 13.0 mph WSW20.9 kmh WSW 17.0 mph27.4 kmh 30.07 in1018.3 mb 0.00 in0.0 mm 0.00 in0.0 mm 0.00 in0.0 mm
03:40 AM 43.9°F6.6°C 42.8°F6.0°C 96% 13.0 mph WSW20.9 kmh WSW 18.0 mph29.0 kmh 30.07 in1018.3 mb 0.00 in0.0 mm 0.00 in0.0 mm 0.00 in0.0 mm
03:35 AM 43.9°F6.6°C 42.8°F6.0°C 96% 13.0 mph WSW20.9 kmh WSW 16.0 mph25.7 kmh 30.08 in1018.6 mb 0.00 in0.0 mm 0.00 in0.0 mm 0.00 in0.0 mm
03:30 AM 43.9°F6.6°C 42.8°F6.0°C 96% 13.0 mph WSW20.9 kmh WSW 18.0 mph29.0 kmh 30.08 in1018.6 mb 0.00 in0.0 mm 0.00 in0.0 mm 0.00 in0.0 mm
03:25 AM 43.8°F6.6°C 42.7°F5.9°C 96% 13.0 mph WSW20.9 kmh WSW 19.0 mph30.6 kmh 30.07 in1018.3 mb 0.00 in0.0 mm 0.00 in0.0 mm 0.00 in0.0 mm
03:20 AM 43.7°F6.5°C 42.6°F5.9°C 96% 14.0 mph WSW22.5 kmh WSW 19.0 mph30.6 kmh 30.08 in1018.6 mb 0.00 in0.0 mm 0.00 in0.0 mm 0.00 in0.0 mm
03:15 AM 43.7°F6.5°C 42.6°F5.9°C 96% 14.0 mph SW22.5 kmh SW 19.0 mph30.6 kmh 30.08 in1018.6 mb 0.00 in0.0 mm 0.00 in0.0 mm 0.00 in0.0 mm
03:10 AM 43.7°F6.5°C 42.6°F5.9°C 96% 14.0 mph WSW22.5 kmh WSW 19.0 mph30.6 kmh 30.08 in1018.6 mb 0.00 in0.0 mm 0.00 in0.0 mm 0.00 in0.0 mm
03:05 AM 43.6°F6.4°C 42.5°F5.8°C 96% 15.0 mph WSW24.1 kmh WSW 19.0 mph30.6 kmh 30.08 in1018.6 mb 0.00 in0.0 mm 0.00 in0.0 mm 0.00 in0.0 mm
03:00 AM 43.6°F6.4°C 42.5°F5.8°C 96% 15.0 mph WSW24.1 kmh WSW 19.0 mph30.6 kmh 30.08 in1018.6 mb 0.00 in0.0 mm 0.00 in0.0 mm 0.00 in0.0 mm
02:55 AM 43.5°F6.4°C 42.4°F5.8°C 96% 14.0 mph WSW22.5 kmh WSW 19.0 mph30.6 kmh 30.08 in1018.6 mb 0.00 in0.0 mm 0.00 in0.0 mm 0.00 in0.0 mm
02:50 AM 43.5°F6.4°C 42.4°F5.8°C 96% 15.0 mph WSW24.1 kmh WSW 20.0 mph32.2 kmh 30.08 in1018.6 mb 0.00 in0.0 mm 0.00 in0.0 mm 0.00 in0.0 mm
02:45 AM 43.5°F6.4°C 42.4°F5.8°C 96% 14.0 mph WSW22.5 kmh WSW 18.0 mph29.0 kmh 30.08 in1018.6 mb 0.00 in0.0 mm 0.00 in0.0 mm 0.00 in0.0 mm
02:40 AM 43.5°F6.4°C 42.4°F5.8°C 96% 15.0 mph WSW24.1 kmh WSW 19.0 mph30.6 kmh 30.08 in1018.6 mb 0.00 in0.0 mm 0.00 in0.0 mm 0.00 in0.0 mm
02:35 AM 43.5°F6.4°C 42.4°F5.8°C 96% 15.0 mph WSW24.1 kmh WSW 19.0 mph30.6 kmh 30.09 in1019.0 mb 0.00 in0.0 mm 0.00 in0.0 mm 0.00 in0.0 mm
02:30 AM 43.5°F6.4°C 42.4°F5.8°C 96% 15.0 mph WSW24.1 kmh WSW 21.0 mph33.8 kmh 30.09 in1019.0 mb 0.00 in0.0 mm 0.00 in0.0 mm 0.00 in0.0 mm
02:25 AM 43.6°F6.4°C 42.5°F5.8°C 96% 14.0 mph WSW22.5 kmh WSW 18.0 mph29.0 kmh 30.09 in1019.0 mb 0.00 in0.0 mm 0.00 in0.0 mm 0.00 in0.0 mm
02:20 AM 43.7°F6.5°C 42.6°F5.9°C 96% 14.0 mph WSW22.5 kmh WSW 19.0 mph30.6 kmh 30.09 in1019.0 mb 0.00 in0.0 mm 0.00 in0.0 mm 0.00 in0.0 mm
02:15 AM 43.7°F6.5°C 42.6°F5.9°C 96% 15.0 mph WSW24.1 kmh WSW 20.0 mph32.2 kmh 30.10 in1019.3 mb 0.00 in0.0 mm 0.00 in0.0 mm 0.00 in0.0 mm
02:10 AM 43.7°F6.5°C 42.6°F5.9°C 96% 14.0 mph WSW22.5 kmh WSW 19.0 mph30.6 kmh 30.10 in1019.3 mb 0.00 in0.0 mm 0.00 in0.0 mm 0.00 in0.0 mm
02:05 AM 43.7°F6.5°C 42.6°F5.9°C 96% 14.0 mph WSW22.5 kmh WSW 18.0 mph29.0 kmh 30.10 in1019.3 mb 0.00 in0.0 mm 0.00 in0.0 mm 0.00 in0.0 mm
02:00 AM 43.7°F6.5°C 42.6°F5.9°C 96% 14.0 mph WSW22.5 kmh WSW 19.0 mph30.6 kmh 30.10 in1019.3 mb 0.00 in0.0 mm 0.00 in0.0 mm 0.00 in0.0 mm
01:55 AM 43.8°F6.6°C 42.7°F5.9°C 96% 14.0 mph WSW22.5 kmh WSW 18.0 mph29.0 kmh 30.10 in1019.3 mb 0.00 in0.0 mm 0.00 in0.0 mm 0.00 in0.0 mm
01:50 AM 43.8°F6.6°C 42.7°F5.9°C 96% 15.0 mph WSW24.1 kmh WSW 19.0 mph30.6 kmh 30.11 in1019.6 mb 0.00 in0.0 mm 0.00 in0.0 mm 0.00 in0.0 mm
01:45 AM 43.8°F6.6°C 42.7°F5.9°C 96% 15.0 mph WSW24.1 kmh WSW 20.0 mph32.2 kmh 30.10 in1019.3 mb 0.00 in0.0 mm 0.00 in0.0 mm 0.00 in0.0 mm
01:40 AM 43.7°F6.5°C 42.6°F5.9°C 96% 14.0 mph WSW22.5 kmh WSW 18.0 mph29.0 kmh 30.10 in1019.3 mb 0.00 in0.0 mm 0.00 in0.0 mm 0.00 in0.0 mm
01:35 AM 43.7°F6.5°C 42.6°F5.9°C 96% 14.0 mph WSW22.5 kmh WSW 20.0 mph32.2 kmh 30.10 in1019.3 mb 0.00 in0.0 mm 0.00 in0.0 mm 0.00 in0.0 mm
01:30 AM 43.6°F6.4°C 42.5°F5.8°C 96% 14.0 mph WSW22.5 kmh WSW 21.0 mph33.8 kmh 30.10 in1019.3 mb 0.00 in0.0 mm 0.00 in0.0 mm 0.00 in0.0 mm
01:25 AM 43.6°F6.4°C 42.5°F5.8°C 96% 14.0 mph WSW22.5 kmh WSW 21.0 mph33.8 kmh 30.10 in1019.3 mb 0.00 in0.0 mm 0.00 in0.0 mm 0.00 in0.0 mm
01:20 AM 43.5°F6.4°C 42.4°F5.8°C 96% 16.0 mph WSW25.7 kmh WSW 21.0 mph33.8 kmh 30.10 in1019.3 mb 0.00 in0.0 mm 0.00 in0.0 mm 0.00 in0.0 mm
01:15 AM 43.4°F6.3°C 42.3°F5.7°C 96% 15.0 mph SW24.1 kmh SW 21.0 mph33.8 kmh 30.10 in1019.3 mb 0.00 in0.0 mm 0.00 in0.0 mm 0.00 in0.0 mm
01:10 AM 43.3°F6.3°C 42.2°F5.7°C 96% 16.0 mph SW25.7 kmh SW 23.0 mph37.0 kmh 30.10 in1019.3 mb 0.00 in0.0 mm 0.00 in0.0 mm 0.00 in0.0 mm
01:05 AM 43.3°F6.3°C 42.2°F5.7°C 96% 15.0 mph SW24.1 kmh SW 21.0 mph33.8 kmh 30.10 in1019.3 mb 0.00 in0.0 mm 0.00 in0.0 mm 0.00 in0.0 mm
01:00 AM 43.2°F6.2°C 42.1°F5.6°C 96% 15.0 mph SW24.1 kmh SW 22.0 mph35.4 kmh 30.10 in1019.3 mb 0.00 in0.0 mm 0.00 in0.0 mm 0.00 in0.0 mm
12:55 AM 43.2°F6.2°C 42.1°F5.6°C 96% 16.0 mph SW25.7 kmh SW 22.0 mph35.4 kmh 30.11 in1019.6 mb 0.00 in0.0 mm 0.00 in0.0 mm 0.00 in0.0 mm
12:50 AM 43.1°F6.2°C 42.0°F5.6°C 96% 17.0 mph SW27.4 kmh SW 23.0 mph37.0 kmh 30.10 in1019.3 mb 0.00 in0.0 mm 0.00 in0.0 mm 0.00 in0.0 mm
12:45 AM 43.0°F6.1°C 41.9°F5.5°C 96% 17.0 mph SW27.4 kmh SW 25.0 mph40.2 kmh 30.11 in1019.6 mb 0.00 in0.0 mm 0.00 in0.0 mm 0.00 in0.0 mm
12:40 AM 43.0°F6.1°C 41.9°F5.5°C 96% 17.0 mph SW27.4 kmh SW 25.0 mph40.2 kmh 30.11 in1019.6 mb 0.00 in0.0 mm 0.00 in0.0 mm 0.00 in0.0 mm
12:35 AM 43.0°F6.1°C 41.9°F5.5°C 96% 17.0 mph SW27.4 kmh SW 23.0 mph37.0 kmh 30.11 in1019.6 mb 0.00 in0.0 mm 0.00 in0.0 mm 0.00 in0.0 mm
12:30 AM 42.9°F6.1°C 41.6°F5.3°C 95% 17.0 mph SW27.4 kmh SW 23.0 mph37.0 kmh 30.11 in1019.6 mb 0.00 in0.0 mm 0.00 in0.0 mm 0.00 in0.0 mm
12:25 AM 42.9°F6.1°C 41.6°F5.3°C 95% 18.0 mph SW29.0 kmh SW 23.0 mph37.0 kmh 30.11 in1019.6 mb 0.00 in0.0 mm 0.00 in0.0 mm 0.00 in0.0 mm
12:20 AM 42.9°F6.1°C 41.6°F5.3°C 95% 17.0 mph SW27.4 kmh SW 24.0 mph38.6 kmh 30.11 in1019.6 mb 0.00 in0.0 mm 0.00 in0.0 mm 0.00 in0.0 mm
12:15 AM 42.9°F6.1°C 41.6°F5.3°C 95% 17.0 mph SW27.4 kmh SW 23.0 mph37.0 kmh 30.12 in1020.0 mb 0.00 in0.0 mm 0.00 in0.0 mm 0.00 in0.0 mm
12:10 AM 42.8°F6.0°C 41.5°F5.3°C 95% 17.0 mph SW27.4 kmh SW 25.0 mph40.2 kmh 30.12 in1020.0 mb 0.00 in0.0 mm 0.00 in0.0 mm 0.00 in0.0 mm
12:05 AM 42.9°F6.1°C 41.6°F5.3°C 95% 18.0 mph SW29.0 kmh SW 25.0 mph40.2 kmh 30.12 in1020.0 mb 0.00 in0.0 mm 0.00 in0.0 mm 0.00 in0.0 mm
12:00 AM 42.8°F6.0°C 41.5°F5.3°C 95% 18.0 mph SW29.0 kmh SW 25.0 mph40.2 kmh 30.12 in1020.0 mb 0.00 in0.0 mm 0.00 in0.0 mm 0.00 in0.0 mm